sensor_id;sensor_type;location;lat;lon;timestamp;P1;durP1;ratioP1;P2;durP2;ratioP2
52952;SDS011;38815;55.932;-3.232;2022-07-23T00:00:36;10.60;;;3.53;;
52952;SDS011;38815;55.932;-3.232;2022-07-23T00:03:02;11.82;;;3.05;;
52952;SDS011;38815;55.932;-3.232;2022-07-23T00:05:27;10.35;;;3.60;;
52952;SDS011;38815;55.932;-3.232;2022-07-23T00:07:52;9.90;;;3.40;;
52952;SDS011;38815;55.932;-3.232;2022-07-23T00:10:17;10.93;;;3.45;;
52952;SDS011;38815;55.932;-3.232;2022-07-23T00:12:43;8.68;;;3.30;;
52952;SDS011;38815;55.932;-3.232;2022-07-23T00:15:08;11.95;;;3.33;;
52952;SDS011;38815;55.932;-3.232;2022-07-23T00:17:34;10.50;;;3.08;;
52952;SDS011;38815;55.932;-3.232;2022-07-23T00:19:59;9.57;;;3.28;;
52952;SDS011;38815;55.932;-3.232;2022-07-23T00:22:24;10.57;;;3.40;;
52952;SDS011;38815;55.932;-3.232;2022-07-23T00:24:50;10.68;;;3.70;;
52952;SDS011;38815;55.932;-3.232;2022-07-23T00:27:15;9.32;;;3.25;;
52952;SDS011;38815;55.932;-3.232;2022-07-23T00:29:40;9.18;;;3.03;;
52952;SDS011;38815;55.932;-3.232;2022-07-23T00:32:05;9.30;;;3.22;;
52952;SDS011;38815;55.932;-3.232;2022-07-23T00:34:31;10.85;;;3.53;;
52952;SDS011;38815;55.932;-3.232;2022-07-23T00:36:56;9.82;;;3.40;;
52952;SDS011;38815;55.932;-3.232;2022-07-23T00:39:21;12.10;;;3.85;;
52952;SDS011;38815;55.932;-3.232;2022-07-23T00:41:47;11.68;;;3.78;;
52952;SDS011;38815;55.932;-3.232;2022-07-23T00:46:48;10.23;;;3.42;;
52952;SDS011;38815;55.932;-3.232;2022-07-23T00:49:14;11.77;;;3.80;;
52952;SDS011;38815;55.932;-3.232;2022-07-23T00:51:39;11.60;;;4.30;;
52952;SDS011;38815;55.932;-3.232;2022-07-23T00:54:05;14.93;;;4.90;;
52952;SDS011;38815;55.932;-3.232;2022-07-23T00:56:30;12.30;;;3.65;;
52952;SDS011;38815;55.932;-3.232;2022-07-23T00:58:55;10.45;;;3.10;;
52952;SDS011;38815;55.932;-3.232;2022-07-23T01:01:21;10.65;;;3.65;;
52952;SDS011;38815;55.932;-3.232;2022-07-23T01:03:46;12.57;;;4.07;;
52952;SDS011;38815;55.932;-3.232;2022-07-23T01:06:12;10.15;;;4.10;;
52952;SDS011;38815;55.932;-3.232;2022-07-23T01:08:37;12.82;;;5.28;;
52952;SDS011;38815;55.932;-3.232;2022-07-23T01:11:03;12.98;;;5.72;;
52952;SDS011;38815;55.932;-3.232;2022-07-23T01:13:29;15.40;;;5.50;;
52952;SDS011;38815;55.932;-3.232;2022-07-23T01:15:54;13.18;;;5.00;;
52952;SDS011;38815;55.932;-3.232;2022-07-23T01:18:19;13.20;;;3.47;;
52952;SDS011;38815;55.932;-3.232;2022-07-23T01:20:45;10.85;;;3.97;;
52952;SDS011;38815;55.932;-3.232;2022-07-23T01:23:10;13.10;;;4.03;;
52952;SDS011;38815;55.932;-3.232;2022-07-23T01:25:35;22.77;;;10.50;;
52952;SDS011;38815;55.932;-3.232;2022-07-23T01:28:00;12.38;;;4.57;;
52952;SDS011;38815;55.932;-3.232;2022-07-23T01:30:26;10.80;;;4.28;;
52952;SDS011;38815;55.932;-3.232;2022-07-23T01:32:51;20.38;;;8.38;;
52952;SDS011;38815;55.932;-3.232;2022-07-23T01:35:16;19.92;;;8.52;;
52952;SDS011;38815;55.932;-3.232;2022-07-23T01:37:42;14.85;;;6.15;;
52952;SDS011;38815;55.932;-3.232;2022-07-23T01:40:07;14.77;;;6.57;;
52952;SDS011;38815;55.932;-3.232;2022-07-23T01:42:32;14.07;;;5.05;;
52952;SDS011;38815;55.932;-3.232;2022-07-23T01:44:58;13.95;;;4.43;;
52952;SDS011;38815;55.932;-3.232;2022-07-23T01:47:23;10.43;;;4.22;;
52952;SDS011;38815;55.932;-3.232;2022-07-23T01:49:48;11.88;;;4.72;;
52952;SDS011;38815;55.932;-3.232;2022-07-23T01:52:14;15.43;;;6.88;;
52952;SDS011;38815;55.932;-3.232;2022-07-23T01:54:39;13.07;;;4.80;;
52952;SDS011;38815;55.932;-3.232;2022-07-23T01:57:04;13.30;;;4.25;;
52952;SDS011;38815;55.932;-3.232;2022-07-23T01:59:29;12.32;;;4.60;;
52952;SDS011;38815;55.932;-3.232;2022-07-23T02:01:55;13.38;;;4.65;;
52952;SDS011;38815;55.932;-3.232;2022-07-23T02:04:21;11.45;;;4.45;;
52952;SDS011;38815;55.932;-3.232;2022-07-23T02:06:46;13.48;;;4.90;;
52952;SDS011;38815;55.932;-3.232;2022-07-23T02:09:12;12.80;;;4.60;;
52952;SDS011;38815;55.932;-3.232;2022-07-23T02:11:37;12.23;;;4.28;;
52952;SDS011;38815;55.932;-3.232;2022-07-23T02:14:03;13.35;;;5.18;;
52952;SDS011;38815;55.932;-3.232;2022-07-23T02:16:28;11.23;;;4.10;;
52952;SDS011;38815;55.932;-3.232;2022-07-23T02:18:53;13.20;;;5.07;;
52952;SDS011;38815;55.932;-3.232;2022-07-23T02:21:18;15.02;;;5.35;;
52952;SDS011;38815;55.932;-3.232;2022-07-23T02:23:44;15.47;;;6.10;;
52952;SDS011;38815;55.932;-3.232;2022-07-23T02:26:09;13.40;;;4.35;;
52952;SDS011;38815;55.932;-3.232;2022-07-23T02:28:34;14.63;;;6.32;;
52952;SDS011;38815;55.932;-3.232;2022-07-23T02:30:59;14.27;;;5.63;;
52952;SDS011;38815;55.932;-3.232;2022-07-23T02:33:25;13.27;;;5.30;;
52952;SDS011;38815;55.932;-3.232;2022-07-23T02:35:50;11.80;;;4.50;;
52952;SDS011;38815;55.932;-3.232;2022-07-23T02:38:15;11.75;;;5.20;;
52952;SDS011;38815;55.932;-3.232;2022-07-23T02:40:41;12.88;;;4.78;;
52952;SDS011;38815;55.932;-3.232;2022-07-23T02:43:06;14.05;;;4.75;;
52952;SDS011;38815;55.932;-3.232;2022-07-23T02:45:31;14.02;;;5.78;;
52952;SDS011;38815;55.932;-3.232;2022-07-23T02:47:56;13.45;;;4.57;;
52952;SDS011;38815;55.932;-3.232;2022-07-23T02:50:22;10.55;;;4.32;;
52952;SDS011;38815;55.932;-3.232;2022-07-23T02:52:47;14.32;;;5.05;;
52952;SDS011;38815;55.932;-3.232;2022-07-23T02:55:12;14.30;;;5.00;;
52952;SDS011;38815;55.932;-3.232;2022-07-23T02:57:38;16.90;;;7.47;;
52952;SDS011;38815;55.932;-3.232;2022-07-23T03:00:03;16.48;;;7.50;;
52952;SDS011;38815;55.932;-3.232;2022-07-23T03:02:29;14.00;;;5.63;;
52952;SDS011;38815;55.932;-3.232;2022-07-23T03:04:55;13.57;;;5.28;;
52952;SDS011;38815;55.932;-3.232;2022-07-23T03:07:20;14.95;;;5.50;;
52952;SDS011;38815;55.932;-3.232;2022-07-23T03:09:45;18.00;;;8.13;;
52952;SDS011;38815;55.932;-3.232;2022-07-23T03:12:10;14.98;;;6.80;;
52952;SDS011;38815;55.932;-3.232;2022-07-23T03:14:36;14.82;;;6.20;;
52952;SDS011;38815;55.932;-3.232;2022-07-23T03:17:01;12.82;;;5.05;;
52952;SDS011;38815;55.932;-3.232;2022-07-23T03:19:26;12.97;;;4.77;;
52952;SDS011;38815;55.932;-3.232;2022-07-23T03:21:51;12.35;;;4.90;;
52952;SDS011;38815;55.932;-3.232;2022-07-23T03:24:17;12.60;;;4.55;;
52952;SDS011;38815;55.932;-3.232;2022-07-23T03:26:45;17.48;;;7.60;;
52952;SDS011;38815;55.932;-3.232;2022-07-23T03:29:10;14.93;;;5.13;;
52952;SDS011;38815;55.932;-3.232;2022-07-23T03:31:35;15.20;;;6.32;;
52952;SDS011;38815;55.932;-3.232;2022-07-23T03:34:01;12.55;;;4.47;;
52952;SDS011;38815;55.932;-3.232;2022-07-23T03:36:26;14.68;;;5.28;;
52952;SDS011;38815;55.932;-3.232;2022-07-23T03:38:51;14.75;;;4.80;;
52952;SDS011;38815;55.932;-3.232;2022-07-23T03:41:17;12.30;;;4.22;;
52952;SDS011;38815;55.932;-3.232;2022-07-23T03:43:42;13.45;;;4.80;;
52952;SDS011;38815;55.932;-3.232;2022-07-23T03:46:08;15.48;;;5.78;;
52952;SDS011;38815;55.932;-3.232;2022-07-23T03:48:33;12.20;;;5.10;;
52952;SDS011;38815;55.932;-3.232;2022-07-23T03:50:58;13.60;;;4.95;;
52952;SDS011;38815;55.932;-3.232;2022-07-23T03:53:24;15.00;;;5.93;;
52952;SDS011;38815;55.932;-3.232;2022-07-23T03:55:49;15.50;;;5.18;;
52952;SDS011;38815;55.932;-3.232;2022-07-23T03:58:14;14.57;;;5.70;;
52952;SDS011;38815;55.932;-3.232;2022-07-23T04:00:39;12.52;;;5.38;;
52952;SDS011;38815;55.932;-3.232;2022-07-23T04:03:05;11.48;;;4.13;;
52952;SDS011;38815;55.932;-3.232;2022-07-23T04:05:30;12.18;;;4.57;;
52952;SDS011;38815;55.932;-3.232;2022-07-23T04:07:55;12.55;;;5.72;;
52952;SDS011;38815;55.932;-3.232;2022-07-23T04:10:20;14.52;;;4.85;;
52952;SDS011;38815;55.932;-3.232;2022-07-23T04:12:46;12.98;;;5.03;;
52952;SDS011;38815;55.932;-3.232;2022-07-23T04:15:11;12.57;;;5.32;;
52952;SDS011;38815;55.932;-3.232;2022-07-23T04:17:36;14.95;;;4.65;;
52952;SDS011;38815;55.932;-3.232;2022-07-23T04:20:02;11.10;;;4.00;;
52952;SDS011;38815;55.932;-3.232;2022-07-23T04:22:27;11.05;;;4.28;;
52952;SDS011;38815;55.932;-3.232;2022-07-23T04:24:52;10.68;;;4.15;;
52952;SDS011;38815;55.932;-3.232;2022-07-23T04:27:18;12.00;;;4.03;;
52952;SDS011;38815;55.932;-3.232;2022-07-23T04:29:43;11.45;;;4.00;;
52952;SDS011;38815;55.932;-3.232;2022-07-23T04:32:08;14.07;;;5.30;;
52952;SDS011;38815;55.932;-3.232;2022-07-23T04:34:34;11.80;;;4.43;;
52952;SDS011;38815;55.932;-3.232;2022-07-23T04:36:59;12.75;;;4.47;;
52952;SDS011;38815;55.932;-3.232;2022-07-23T04:39:24;12.90;;;5.15;;
52952;SDS011;38815;55.932;-3.232;2022-07-23T04:41:49;12.75;;;4.90;;
52952;SDS011;38815;55.932;-3.232;2022-07-23T04:44:15;12.52;;;4.70;;
52952;SDS011;38815;55.932;-3.232;2022-07-23T04:46:40;12.20;;;4.60;;
52952;SDS011;38815;55.932;-3.232;2022-07-23T04:49:05;11.93;;;5.53;;
52952;SDS011;38815;55.932;-3.232;2022-07-23T04:51:31;10.70;;;3.85;;
52952;SDS011;38815;55.932;-3.232;2022-07-23T04:53:56;15.20;;;6.10;;
52952;SDS011;38815;55.932;-3.232;2022-07-23T04:56:21;16.95;;;7.22;;
52952;SDS011;38815;55.932;-3.232;2022-07-23T04:58:47;12.75;;;4.90;;
52952;SDS011;38815;55.932;-3.232;2022-07-23T05:01:12;11.40;;;4.28;;
52952;SDS011;38815;55.932;-3.232;2022-07-23T05:03:37;10.30;;;3.67;;
52952;SDS011;38815;55.932;-3.232;2022-07-23T05:06:02;10.82;;;4.32;;
52952;SDS011;38815;55.932;-3.232;2022-07-23T05:08:28;12.00;;;4.53;;
52952;SDS011;38815;55.932;-3.232;2022-07-23T05:10:53;12.32;;;3.92;;
52952;SDS011;38815;55.932;-3.232;2022-07-23T05:13:19;11.05;;;4.03;;
52952;SDS011;38815;55.932;-3.232;2022-07-23T05:15:44;11.60;;;4.40;;
52952;SDS011;38815;55.932;-3.232;2022-07-23T05:18:10;11.20;;;4.90;;
52952;SDS011;38815;55.932;-3.232;2022-07-23T05:20:35;15.93;;;6.40;;
52952;SDS011;38815;55.932;-3.232;2022-07-23T05:23:00;11.02;;;4.13;;
52952;SDS011;38815;55.932;-3.232;2022-07-23T05:25:26;11.05;;;4.28;;
52952;SDS011;38815;55.932;-3.232;2022-07-23T05:27:51;13.60;;;5.43;;
52952;SDS011;38815;55.932;-3.232;2022-07-23T05:30:16;15.98;;;7.00;;
52952;SDS011;38815;55.932;-3.232;2022-07-23T05:32:41;13.05;;;4.70;;
52952;SDS011;38815;55.932;-3.232;2022-07-23T05:35:07;11.88;;;4.78;;
52952;SDS011;38815;55.932;-3.232;2022-07-23T05:37:32;11.75;;;4.40;;
52952;SDS011;38815;55.932;-3.232;2022-07-23T05:40:04;12.10;;;4.05;;
52952;SDS011;38815;55.932;-3.232;2022-07-23T05:44:57;12.40;;;3.90;;
52952;SDS011;38815;55.932;-3.232;2022-07-23T05:47:22;11.63;;;4.38;;
52952;SDS011;38815;55.932;-3.232;2022-07-23T05:49:48;13.75;;;4.05;;
52952;SDS011;38815;55.932;-3.232;2022-07-23T05:52:13;11.77;;;5.00;;
52952;SDS011;38815;55.932;-3.232;2022-07-23T05:54:38;14.35;;;4.65;;
52952;SDS011;38815;55.932;-3.232;2022-07-23T05:57:04;12.27;;;4.13;;
52952;SDS011;38815;55.932;-3.232;2022-07-23T05:59:29;12.18;;;4.25;;
52952;SDS011;38815;55.932;-3.232;2022-07-23T06:01:54;11.70;;;4.45;;
52952;SDS011;38815;55.932;-3.232;2022-07-23T06:04:20;10.13;;;4.32;;
52952;SDS011;38815;55.932;-3.232;2022-07-23T06:06:45;13.52;;;4.13;;
52952;SDS011;38815;55.932;-3.232;2022-07-23T06:09:11;9.80;;;4.03;;
52952;SDS011;38815;55.932;-3.232;2022-07-23T06:11:38;12.70;;;4.18;;
52952;SDS011;38815;55.932;-3.232;2022-07-23T06:14:03;11.25;;;3.83;;
52952;SDS011;38815;55.932;-3.232;2022-07-23T06:16:29;12.30;;;4.22;;
52952;SDS011;38815;55.932;-3.232;2022-07-23T06:18:54;10.65;;;3.67;;
52952;SDS011;38815;55.932;-3.232;2022-07-23T06:21:20;10.70;;;4.05;;
52952;SDS011;38815;55.932;-3.232;2022-07-23T06:23:45;10.60;;;3.72;;
52952;SDS011;38815;55.932;-3.232;2022-07-23T06:26:10;12.68;;;3.85;;
52952;SDS011;38815;55.932;-3.232;2022-07-23T06:28:36;10.60;;;4.30;;
52952;SDS011;38815;55.932;-3.232;2022-07-23T06:31:01;9.43;;;3.58;;
52952;SDS011;38815;55.932;-3.232;2022-07-23T06:33:26;9.27;;;3.20;;
52952;SDS011;38815;55.932;-3.232;2022-07-23T06:35:51;13.98;;;4.50;;
52952;SDS011;38815;55.932;-3.232;2022-07-23T06:38:17;11.00;;;4.43;;
52952;SDS011;38815;55.932;-3.232;2022-07-23T06:40:42;14.52;;;5.20;;
52952;SDS011;38815;55.932;-3.232;2022-07-23T06:43:08;10.70;;;4.28;;
52952;SDS011;38815;55.932;-3.232;2022-07-23T06:45:34;13.10;;;5.57;;
52952;SDS011;38815;55.932;-3.232;2022-07-23T06:47:59;8.65;;;3.40;;
52952;SDS011;38815;55.932;-3.232;2022-07-23T06:50:27;10.38;;;3.70;;
52952;SDS011;38815;55.932;-3.232;2022-07-23T06:52:52;14.70;;;6.35;;
52952;SDS011;38815;55.932;-3.232;2022-07-23T06:55:17;11.90;;;4.18;;
52952;SDS011;38815;55.932;-3.232;2022-07-23T06:57:43;13.93;;;4.20;;
52952;SDS011;38815;55.932;-3.232;2022-07-23T07:00:08;10.55;;;4.20;;
52952;SDS011;38815;55.932;-3.232;2022-07-23T07:02:34;14.23;;;4.88;;
52952;SDS011;38815;55.932;-3.232;2022-07-23T07:04:59;12.55;;;4.60;;
52952;SDS011;38815;55.932;-3.232;2022-07-23T07:07:24;11.95;;;3.95;;
52952;SDS011;38815;55.932;-3.232;2022-07-23T07:09:49;10.70;;;4.00;;
52952;SDS011;38815;55.932;-3.232;2022-07-23T07:12:15;11.65;;;4.53;;
52952;SDS011;38815;55.932;-3.232;2022-07-23T07:14:40;10.27;;;4.22;;
52952;SDS011;38815;55.932;-3.232;2022-07-23T07:17:05;10.63;;;3.92;;
52952;SDS011;38815;55.932;-3.232;2022-07-23T07:19:30;12.67;;;3.90;;
52952;SDS011;38815;55.932;-3.232;2022-07-23T07:21:56;9.63;;;3.67;;
52952;SDS011;38815;55.932;-3.232;2022-07-23T07:24:21;11.77;;;3.67;;
52952;SDS011;38815;55.932;-3.232;2022-07-23T07:26:46;9.65;;;3.83;;
52952;SDS011;38815;55.932;-3.232;2022-07-23T07:29:12;14.18;;;4.10;;
52952;SDS011;38815;55.932;-3.232;2022-07-23T07:31:37;13.02;;;5.28;;
52952;SDS011;38815;55.932;-3.232;2022-07-23T07:34:02;11.77;;;3.53;;
52952;SDS011;38815;55.932;-3.232;2022-07-23T07:36:28;10.68;;;3.63;;
52952;SDS011;38815;55.932;-3.232;2022-07-23T07:38:53;9.65;;;3.47;;
52952;SDS011;38815;55.932;-3.232;2022-07-23T07:41:18;9.55;;;3.17;;
52952;SDS011;38815;55.932;-3.232;2022-07-23T07:43:47;12.05;;;4.85;;
52952;SDS011;38815;55.932;-3.232;2022-07-23T07:46:13;12.25;;;3.53;;
52952;SDS011;38815;55.932;-3.232;2022-07-23T07:48:38;13.37;;;4.90;;
52952;SDS011;38815;55.932;-3.232;2022-07-23T07:51:03;11.63;;;4.10;;
52952;SDS011;38815;55.932;-3.232;2022-07-23T07:53:29;14.77;;;5.05;;
52952;SDS011;38815;55.932;-3.232;2022-07-23T07:55:54;8.48;;;3.38;;
52952;SDS011;38815;55.932;-3.232;2022-07-23T07:58:20;10.10;;;3.38;;
52952;SDS011;38815;55.932;-3.232;2022-07-23T08:00:45;10.73;;;3.95;;
52952;SDS011;38815;55.932;-3.232;2022-07-23T08:03:10;12.38;;;4.57;;
52952;SDS011;38815;55.932;-3.232;2022-07-23T08:05:35;9.77;;;3.50;;
52952;SDS011;38815;55.932;-3.232;2022-07-23T08:08:01;10.18;;;3.72;;
52952;SDS011;38815;55.932;-3.232;2022-07-23T08:10:26;12.43;;;4.38;;
52952;SDS011;38815;55.932;-3.232;2022-07-23T08:12:52;9.68;;;3.40;;
52952;SDS011;38815;55.932;-3.232;2022-07-23T08:15:19;12.93;;;4.85;;
52952;SDS011;38815;55.932;-3.232;2022-07-23T08:17:45;10.35;;;3.85;;
52952;SDS011;38815;55.932;-3.232;2022-07-23T08:20:11;11.70;;;4.15;;
52952;SDS011;38815;55.932;-3.232;2022-07-23T08:25:11;11.80;;;4.25;;
52952;SDS011;38815;55.932;-3.232;2022-07-23T08:27:37;9.10;;;3.40;;
52952;SDS011;38815;55.932;-3.232;2022-07-23T08:30:02;10.70;;;4.43;;
52952;SDS011;38815;55.932;-3.232;2022-07-23T08:32:28;8.43;;;3.10;;
52952;SDS011;38815;55.932;-3.232;2022-07-23T08:34:53;13.43;;;4.63;;
52952;SDS011;38815;55.932;-3.232;2022-07-23T08:37:18;9.85;;;3.90;;
52952;SDS011;38815;55.932;-3.232;2022-07-23T08:39:43;11.65;;;4.00;;
52952;SDS011;38815;55.932;-3.232;2022-07-23T08:42:09;10.30;;;3.15;;
52952;SDS011;38815;55.932;-3.232;2022-07-23T08:44:35;10.93;;;3.45;;
52952;SDS011;38815;55.932;-3.232;2022-07-23T08:47:00;10.45;;;3.47;;
52952;SDS011;38815;55.932;-3.232;2022-07-23T08:49:26;9.85;;;3.60;;
52952;SDS011;38815;55.932;-3.232;2022-07-23T08:51:51;10.38;;;3.40;;
52952;SDS011;38815;55.932;-3.232;2022-07-23T08:54:17;10.23;;;3.50;;
52952;SDS011;38815;55.932;-3.232;2022-07-23T08:56:42;8.57;;;3.22;;
52952;SDS011;38815;55.932;-3.232;2022-07-23T08:59:08;10.02;;;3.50;;
52952;SDS011;38815;55.932;-3.232;2022-07-23T09:01:33;10.73;;;3.50;;
52952;SDS011;38815;55.932;-3.232;2022-07-23T09:03:58;9.55;;;3.38;;
52952;SDS011;38815;55.932;-3.232;2022-07-23T09:06:24;8.68;;;3.60;;
52952;SDS011;38815;55.932;-3.232;2022-07-23T09:08:49;13.80;;;3.97;;
52952;SDS011;38815;55.932;-3.232;2022-07-23T09:11:17;10.55;;;3.63;;
52952;SDS011;38815;55.932;-3.232;2022-07-23T09:16:12;10.65;;;3.55;;
52952;SDS011;38815;55.932;-3.232;2022-07-23T09:19:00;10.02;;;3.53;;
52952;SDS011;38815;55.932;-3.232;2022-07-23T09:21:27;9.82;;;3.40;;
52952;SDS011;38815;55.932;-3.232;2022-07-23T09:23:56;9.68;;;3.42;;
52952;SDS011;38815;55.932;-3.232;2022-07-23T09:26:24;9.05;;;3.53;;
52952;SDS011;38815;55.932;-3.232;2022-07-23T09:28:50;13.20;;;3.55;;
52952;SDS011;38815;55.932;-3.232;2022-07-23T09:31:16;10.15;;;3.55;;
52952;SDS011;38815;55.932;-3.232;2022-07-23T09:33:41;9.05;;;3.45;;
52952;SDS011;38815;55.932;-3.232;2022-07-23T09:36:06;11.73;;;3.30;;
52952;SDS011;38815;55.932;-3.232;2022-07-23T09:38:34;9.98;;;3.15;;
52952;SDS011;38815;55.932;-3.232;2022-07-23T09:41:09;9.30;;;3.20;;
52952;SDS011;38815;55.932;-3.232;2022-07-23T09:43:36;12.63;;;3.40;;
52952;SDS011;38815;55.932;-3.232;2022-07-23T09:46:20;13.82;;;3.97;;
52952;SDS011;38815;55.932;-3.232;2022-07-23T09:48:46;12.43;;;3.42;;
52952;SDS011;38815;55.932;-3.232;2022-07-23T09:51:11;11.05;;;3.58;;
52952;SDS011;38815;55.932;-3.232;2022-07-23T09:53:38;10.63;;;3.42;;
52952;SDS011;38815;55.932;-3.232;2022-07-23T09:56:03;11.90;;;3.78;;
52952;SDS011;38815;55.932;-3.232;2022-07-23T09:58:28;10.70;;;3.75;;
52952;SDS011;38815;55.932;-3.232;2022-07-23T10:00:55;10.02;;;3.17;;
52952;SDS011;38815;55.932;-3.232;2022-07-23T10:03:20;9.57;;;3.05;;
52952;SDS011;38815;55.932;-3.232;2022-07-23T10:05:46;9.57;;;3.00;;
52952;SDS011;38815;55.932;-3.232;2022-07-23T10:08:12;9.60;;;3.30;;
52952;SDS011;38815;55.932;-3.232;2022-07-23T10:10:40;12.60;;;3.55;;
52952;SDS011;38815;55.932;-3.232;2022-07-23T10:13:05;10.57;;;3.80;;
52952;SDS011;38815;55.932;-3.232;2022-07-23T10:15:43;13.85;;;3.40;;
52952;SDS011;38815;55.932;-3.232;2022-07-23T10:18:10;16.70;;;3.63;;
52952;SDS011;38815;55.932;-3.232;2022-07-23T10:20:35;11.80;;;3.55;;
52952;SDS011;38815;55.932;-3.232;2022-07-23T10:25:32;9.13;;;2.85;;
52952;SDS011;38815;55.932;-3.232;2022-07-23T10:30:39;8.85;;;3.05;;
52952;SDS011;38815;55.932;-3.232;2022-07-23T10:41:03;11.82;;;2.65;;
52952;SDS011;38815;55.932;-3.232;2022-07-23T10:43:28;9.25;;;2.90;;
52952;SDS011;38815;55.932;-3.232;2022-07-23T10:45:54;10.55;;;2.88;;
52952;SDS011;38815;55.932;-3.232;2022-07-23T10:48:23;8.32;;;2.70;;
52952;SDS011;38815;55.932;-3.232;2022-07-23T10:59:05;8.05;;;2.45;;
52952;SDS011;38815;55.932;-3.232;2022-07-23T11:01:37;6.38;;;2.10;;
52952;SDS011;38815;55.932;-3.232;2022-07-23T11:04:03;10.45;;;2.65;;
52952;SDS011;38815;55.932;-3.232;2022-07-23T11:07:16;9.07;;;2.53;;
52952;SDS011;38815;55.932;-3.232;2022-07-23T11:15:21;13.65;;;2.78;;
52952;SDS011;38815;55.932;-3.232;2022-07-23T11:17:27;13.98;;;2.38;;
52952;SDS011;38815;55.932;-3.232;2022-07-23T11:22:41;10.02;;;2.53;;
52952;SDS011;38815;55.932;-3.232;2022-07-23T11:25:11;8.45;;;2.17;;
52952;SDS011;38815;55.932;-3.232;2022-07-23T11:27:44;7.65;;;2.00;;
52952;SDS011;38815;55.932;-3.232;2022-07-23T11:30:55;7.18;;;1.98;;
52952;SDS011;38815;55.932;-3.232;2022-07-23T11:35:32;9.88;;;2.08;;
52952;SDS011;38815;55.932;-3.232;2022-07-23T11:38:05;5.68;;;1.70;;
52952;SDS011;38815;55.932;-3.232;2022-07-23T11:40:31;6.72;;;1.90;;
52952;SDS011;38815;55.932;-3.232;2022-07-23T11:43:00;5.93;;;1.92;;
52952;SDS011;38815;55.932;-3.232;2022-07-23T11:45:30;6.68;;;1.70;;
52952;SDS011;38815;55.932;-3.232;2022-07-23T11:47:55;5.43;;;1.80;;
52952;SDS011;38815;55.932;-3.232;2022-07-23T11:50:22;9.65;;;2.70;;
52952;SDS011;38815;55.932;-3.232;2022-07-23T11:52:47;10.25;;;3.60;;
52952;SDS011;38815;55.932;-3.232;2022-07-23T11:55:13;6.25;;;1.95;;
52952;SDS011;38815;55.932;-3.232;2022-07-23T11:57:41;6.22;;;1.85;;
52952;SDS011;38815;55.932;-3.232;2022-07-23T12:02:33;6.45;;;1.92;;
52952;SDS011;38815;55.932;-3.232;2022-07-23T12:04:58;5.38;;;2.03;;
52952;SDS011;38815;55.932;-3.232;2022-07-23T12:07:34;6.28;;;1.92;;
52952;SDS011;38815;55.932;-3.232;2022-07-23T12:10:13;7.65;;;1.95;;
52952;SDS011;38815;55.932;-3.232;2022-07-23T12:12:39;6.10;;;2.13;;
52952;SDS011;38815;55.932;-3.232;2022-07-23T12:15:05;8.65;;;2.63;;
52952;SDS011;38815;55.932;-3.232;2022-07-23T12:17:32;6.53;;;2.20;;
52952;SDS011;38815;55.932;-3.232;2022-07-23T12:19:58;6.55;;;2.15;;
52952;SDS011;38815;55.932;-3.232;2022-07-23T12:22:24;8.98;;;2.33;;
52952;SDS011;38815;55.932;-3.232;2022-07-23T12:26:23;24.67;;;6.40;;
52952;SDS011;38815;55.932;-3.232;2022-07-23T12:28:51;22.55;;;6.90;;
52952;SDS011;38815;55.932;-3.232;2022-07-23T12:31:25;15.10;;;6.13;;
52952;SDS011;38815;55.932;-3.232;2022-07-23T12:33:52;17.35;;;6.55;;
52952;SDS011;38815;55.932;-3.232;2022-07-23T12:36:17;27.65;;;5.68;;
52952;SDS011;38815;55.932;-3.232;2022-07-23T12:38:51;12.52;;;3.35;;
52952;SDS011;38815;55.932;-3.232;2022-07-23T12:43:43;13.27;;;3.28;;
52952;SDS011;38815;55.932;-3.232;2022-07-23T12:46:19;11.88;;;3.03;;
52952;SDS011;38815;55.932;-3.232;2022-07-23T12:51:27;8.48;;;2.35;;
52952;SDS011;38815;55.932;-3.232;2022-07-23T12:54:04;9.90;;;2.38;;
52952;SDS011;38815;55.932;-3.232;2022-07-23T12:56:38;5.95;;;2.00;;
52952;SDS011;38815;55.932;-3.232;2022-07-23T12:59:08;6.22;;;1.80;;
52952;SDS011;38815;55.932;-3.232;2022-07-23T13:04:09;7.45;;;1.70;;
52952;SDS011;38815;55.932;-3.232;2022-07-23T13:06:46;6.70;;;1.92;;
52952;SDS011;38815;55.932;-3.232;2022-07-23T13:09:15;9.68;;;1.67;;
52952;SDS011;38815;55.932;-3.232;2022-07-23T13:11:43;7.10;;;1.90;;
52952;SDS011;38815;55.932;-3.232;2022-07-23T13:14:10;7.97;;;1.90;;
52952;SDS011;38815;55.932;-3.232;2022-07-23T13:16:36;8.05;;;1.95;;
52952;SDS011;38815;55.932;-3.232;2022-07-23T13:19:02;6.20;;;2.20;;
52952;SDS011;38815;55.932;-3.232;2022-07-23T13:21:28;5.10;;;1.88;;
52952;SDS011;38815;55.932;-3.232;2022-07-23T13:23:54;4.68;;;1.80;;
52952;SDS011;38815;55.932;-3.232;2022-07-23T13:26:20;7.35;;;2.17;;
52952;SDS011;38815;55.932;-3.232;2022-07-23T13:28:45;5.78;;;1.80;;
52952;SDS011;38815;55.932;-3.232;2022-07-23T13:31:11;5.55;;;1.55;;
52952;SDS011;38815;55.932;-3.232;2022-07-23T13:33:36;6.22;;;1.90;;
52952;SDS011;38815;55.932;-3.232;2022-07-23T13:36:02;10.02;;;1.70;;
52952;SDS011;38815;55.932;-3.232;2022-07-23T13:38:28;5.68;;;2.13;;
52952;SDS011;38815;55.932;-3.232;2022-07-23T13:40:54;7.80;;;1.92;;
52952;SDS011;38815;55.932;-3.232;2022-07-23T13:43:21;7.30;;;1.88;;
52952;SDS011;38815;55.932;-3.232;2022-07-23T13:45:48;9.80;;;2.10;;
52952;SDS011;38815;55.932;-3.232;2022-07-23T13:48:15;4.43;;;1.63;;
52952;SDS011;38815;55.932;-3.232;2022-07-23T13:50:41;7.30;;;1.85;;
52952;SDS011;38815;55.932;-3.232;2022-07-23T13:53:09;8.18;;;1.85;;
52952;SDS011;38815;55.932;-3.232;2022-07-23T13:55:37;6.63;;;1.90;;
52952;SDS011;38815;55.932;-3.232;2022-07-23T13:58:03;4.13;;;1.60;;
52952;SDS011;38815;55.932;-3.232;2022-07-23T14:00:29;5.28;;;1.52;;
52952;SDS011;38815;55.932;-3.232;2022-07-23T14:02:56;8.15;;;1.38;;
52952;SDS011;38815;55.932;-3.232;2022-07-23T14:05:22;12.05;;;1.60;;
52952;SDS011;38815;55.932;-3.232;2022-07-23T14:07:48;2.72;;;1.27;;
52952;SDS011;38815;55.932;-3.232;2022-07-23T14:10:15;3.92;;;1.60;;
52952;SDS011;38815;55.932;-3.232;2022-07-23T14:12:42;3.70;;;1.30;;
52952;SDS011;38815;55.932;-3.232;2022-07-23T14:15:08;6.05;;;2.10;;
52952;SDS011;38815;55.932;-3.232;2022-07-23T14:17:34;4.38;;;1.58;;
52952;SDS011;38815;55.932;-3.232;2022-07-23T14:20:01;3.28;;;1.38;;
52952;SDS011;38815;55.932;-3.232;2022-07-23T14:22:27;2.70;;;1.20;;
52952;SDS011;38815;55.932;-3.232;2022-07-23T14:24:53;3.47;;;1.20;;
52952;SDS011;38815;55.932;-3.232;2022-07-23T14:27:18;2.08;;;1.20;;
52952;SDS011;38815;55.932;-3.232;2022-07-23T14:29:44;3.70;;;1.27;;
52952;SDS011;38815;55.932;-3.232;2022-07-23T14:32:09;2.20;;;1.00;;
52952;SDS011;38815;55.932;-3.232;2022-07-23T14:34:35;3.22;;;1.08;;
52952;SDS011;38815;55.932;-3.232;2022-07-23T14:37:00;2.47;;;1.10;;
52952;SDS011;38815;55.932;-3.232;2022-07-23T14:39:26;4.03;;;1.13;;
52952;SDS011;38815;55.932;-3.232;2022-07-23T14:41:51;2.42;;;1.10;;
52952;SDS011;38815;55.932;-3.232;2022-07-23T14:44:17;5.85;;;1.30;;
52952;SDS011;38815;55.932;-3.232;2022-07-23T14:46:43;4.95;;;1.50;;
52952;SDS011;38815;55.932;-3.232;2022-07-23T14:49:08;3.75;;;1.52;;
52952;SDS011;38815;55.932;-3.232;2022-07-23T14:51:34;3.55;;;1.23;;
52952;SDS011;38815;55.932;-3.232;2022-07-23T14:54:01;3.17;;;1.10;;
52952;SDS011;38815;55.932;-3.232;2022-07-23T14:56:27;2.45;;;1.20;;
52952;SDS011;38815;55.932;-3.232;2022-07-23T14:58:53;2.35;;;1.30;;
52952;SDS011;38815;55.932;-3.232;2022-07-23T15:01:20;4.00;;;1.40;;
52952;SDS011;38815;55.932;-3.232;2022-07-23T15:03:47;2.42;;;1.23;;
52952;SDS011;38815;55.932;-3.232;2022-07-23T15:06:12;3.42;;;1.38;;
52952;SDS011;38815;55.932;-3.232;2022-07-23T15:08:38;5.43;;;1.25;;
52952;SDS011;38815;55.932;-3.232;2022-07-23T15:11:04;3.70;;;1.38;;
52952;SDS011;38815;55.932;-3.232;2022-07-23T15:13:29;4.22;;;1.42;;